createdAt,value
2018-06-14T00:00:29.649Z,12.46
2018-06-14T00:01:29.647Z,12.30
2018-06-14T00:02:29.645Z,12.43
2018-06-14T00:03:29.642Z,12.30
2018-06-14T00:04:29.634Z,12.33
2018-06-14T00:05:29.629Z,12.25
2018-06-14T00:06:29.620Z,12.22
2018-06-14T00:07:29.614Z,12.23
2018-06-14T00:08:29.610Z,12.25
2018-06-14T00:09:29.607Z,12.22
2018-06-14T00:10:29.605Z,12.13
2018-06-14T00:11:29.600Z,12.12
2018-06-14T00:12:29.593Z,12.04
2018-06-14T00:13:29.585Z,12.11
2018-06-14T00:14:29.585Z,12.08
2018-06-14T00:15:29.580Z,12.12
2018-06-14T00:16:29.575Z,12.23
2018-06-14T00:17:29.575Z,12.19
2018-06-14T00:18:29.561Z,12.22
2018-06-14T00:19:29.555Z,12.33
2018-06-14T00:20:29.555Z,12.51
2018-06-14T00:21:29.545Z,12.51
2018-06-14T00:22:29.545Z,12.54
2018-06-14T00:23:29.540Z,12.55
2018-06-14T00:24:29.535Z,12.56
2018-06-14T00:25:29.529Z,12.54
2018-06-14T00:26:29.521Z,12.54
2018-06-14T00:27:29.514Z,12.51
2018-06-14T00:28:29.515Z,12.51
2018-06-14T00:29:29.511Z,12.49
2018-06-14T00:30:29.500Z,12.56
2018-06-14T00:31:29.498Z,12.54
2018-06-14T00:32:29.489Z,12.52
2018-06-14T00:33:29.485Z,12.49
2018-06-14T00:34:29.483Z,12.54
2018-06-14T00:35:29.478Z,12.54
2018-06-14T00:36:29.473Z,12.62
2018-06-14T00:37:29.470Z,12.59
2018-06-14T00:38:29.459Z,12.61
2018-06-14T00:39:29.453Z,12.59
2018-06-14T00:40:29.458Z,12.62
2018-06-14T00:41:29.443Z,12.74
2018-06-14T00:42:29.443Z,12.59
2018-06-14T00:43:29.438Z,12.62
2018-06-14T00:44:29.431Z,12.59
2018-06-14T00:45:29.424Z,12.62
2018-06-14T00:46:29.423Z,12.49
2018-06-14T00:47:29.417Z,12.51
2018-06-14T00:48:29.412Z,12.36
2018-06-14T00:49:29.406Z,12.34
2018-06-14T00:50:29.398Z,12.19
2018-06-14T00:51:29.391Z,12.22
2018-06-14T00:52:29.386Z,12.15
2018-06-14T00:53:29.383Z,12.07
2018-06-14T00:54:29.380Z,12.05
2018-06-14T00:55:29.374Z,12.00
2018-06-14T00:56:29.370Z,12.11
2018-06-14T00:57:29.364Z,12.00
2018-06-14T00:58:29.357Z,12.13
2018-06-14T00:59:29.349Z,12.12
2018-06-14T01:00:29.348Z,12.25
2018-06-14T01:01:29.344Z,12.34
2018-06-14T01:02:29.335Z,12.33
2018-06-14T01:03:29.332Z,12.37
2018-06-14T01:04:29.323Z,12.38
2018-06-14T01:05:29.318Z,12.48
2018-06-14T01:06:29.316Z,12.48
2018-06-14T01:07:29.314Z,12.54
2018-06-14T01:08:29.307Z,12.49
2018-06-14T01:09:29.300Z,12.51
2018-06-14T01:10:29.291Z,12.48
2018-06-14T01:11:29.285Z,12.52
2018-06-14T01:12:29.280Z,12.44
2018-06-14T01:13:29.281Z,12.58
2018-06-14T01:14:29.275Z,12.49
2018-06-14T01:15:29.269Z,12.38
2018-06-14T01:16:29.259Z,12.40
2018-06-14T01:17:29.253Z,12.38
2018-06-14T01:18:29.254Z,12.38
2018-06-14T01:19:29.248Z,12.38
2018-06-14T01:20:29.241Z,12.37
2018-06-14T01:21:29.237Z,12.25
2018-06-14T01:22:29.226Z,12.22
2018-06-14T01:23:29.221Z,12.25
2018-06-14T01:24:29.215Z,12.23
2018-06-14T01:25:29.211Z,12.16
2018-06-14T01:26:29.209Z,12.25
2018-06-14T01:27:29.204Z,12.30
2018-06-14T01:28:29.198Z,12.30
2018-06-14T01:29:29.193Z,12.21
2018-06-14T01:30:29.184Z,12.30
2018-06-14T01:31:29.178Z,12.18
2018-06-14T01:32:29.178Z,12.15
2018-06-14T01:33:29.173Z,12.26
2018-06-14T01:34:29.162Z,12.11
2018-06-14T01:35:29.156Z,12.08
2018-06-14T01:36:29.151Z,12.15
2018-06-14T01:37:29.145Z,12.11
2018-06-14T01:38:29.144Z,12.12
2018-06-14T01:39:29.138Z,12.11
2018-06-14T01:40:29.133Z,12.07
2018-06-14T01:41:29.128Z,12.08
2018-06-14T01:42:29.122Z,12.11
2018-06-14T01:43:29.112Z,12.15
2018-06-14T01:44:29.107Z,12.08
2018-06-14T01:45:29.103Z,12.08
2018-06-14T01:46:29.101Z,11.97
2018-06-14T01:47:29.097Z,11.93
2018-06-14T01:48:29.085Z,11.94
2018-06-14T01:49:29.080Z,11.84
2018-06-14T01:50:29.080Z,11.79
2018-06-14T01:51:29.073Z,11.79
2018-06-14T01:52:29.067Z,11.74
2018-06-14T01:53:29.063Z,11.74
2018-06-14T01:54:29.053Z,11.63
2018-06-14T01:55:29.049Z,11.66
2018-06-14T01:56:29.041Z,11.60
2018-06-14T01:57:29.037Z,11.59
2018-06-14T01:58:29.036Z,11.56
2018-06-14T01:59:29.029Z,11.59
2018-06-14T02:00:29.029Z,11.42
2018-06-14T02:01:29.020Z,11.51
2018-06-14T02:02:29.009Z,11.48
2018-06-14T02:03:29.003Z,11.44
2018-06-14T02:04:29.003Z,11.49
2018-06-14T02:05:28.997Z,11.42
2018-06-14T02:06:28.987Z,11.49
2018-06-14T02:07:28.980Z,11.46
2018-06-14T02:08:28.976Z,11.48
2018-06-14T02:09:28.971Z,11.48
2018-06-14T02:10:28.970Z,11.62
2018-06-14T02:11:28.963Z,11.56
2018-06-14T02:12:28.958Z,11.59
2018-06-14T02:13:28.953Z,11.56
2018-06-14T02:14:28.943Z,11.62
2018-06-14T02:15:28.938Z,11.69
2018-06-14T02:16:28.931Z,11.74
2018-06-14T02:17:28.926Z,11.79
2018-06-14T02:18:28.925Z,11.87
2018-06-14T02:19:28.921Z,11.94
2018-06-14T02:20:28.909Z,11.98
2018-06-14T02:21:28.908Z,12.07
2018-06-14T02:22:28.908Z,12.12
2018-06-14T02:23:28.896Z,12.25
2018-06-14T02:24:28.892Z,12.21
2018-06-14T02:25:28.887Z,12.26
2018-06-14T02:26:28.876Z,12.30
2018-06-14T02:27:28.871Z,12.43
2018-06-14T02:28:28.865Z,12.49
2018-06-14T02:29:28.860Z,12.38
2018-06-14T02:30:28.859Z,12.44
2018-06-14T02:31:28.854Z,12.51
2018-06-14T02:32:28.846Z,12.51
2018-06-14T02:33:28.842Z,12.58
2018-06-14T02:34:28.832Z,12.49
2018-06-14T02:35:28.826Z,12.51
2018-06-14T02:36:28.828Z,12.49
2018-06-14T02:37:28.819Z,12.61
2018-06-14T02:38:28.810Z,12.49
2018-06-14T02:39:28.803Z,12.49
2018-06-14T02:40:28.798Z,12.51
2018-06-14T02:41:28.794Z,12.61
2018-06-14T02:42:28.792Z,12.54
2018-06-14T02:43:28.785Z,12.54
2018-06-14T02:44:28.788Z,12.56
2018-06-14T02:45:28.776Z,12.54
2018-06-14T02:46:28.764Z,12.61
2018-06-14T02:47:28.760Z,12.51
2018-06-14T02:48:28.752Z,12.51
2018-06-14T02:49:28.747Z,12.58
2018-06-14T02:50:28.750Z,12.49
2018-06-14T02:51:28.740Z,12.52
2018-06-14T02:52:28.731Z,12.52
2018-06-14T02:53:28.728Z,12.56
2018-06-14T02:54:28.724Z,12.69
2018-06-14T02:55:28.727Z,12.62
2018-06-14T02:56:28.713Z,12.54
2018-06-14T02:57:28.708Z,12.58
2018-06-14T02:58:28.698Z,12.58
2018-06-14T02:59:28.690Z,12.58
2018-06-14T03:00:28.686Z,12.58
2018-06-14T03:01:28.680Z,12.59
2018-06-14T03:02:28.680Z,12.56
2018-06-14T03:03:28.672Z,12.52
2018-06-14T03:04:28.667Z,12.52
2018-06-14T03:05:28.662Z,12.55
2018-06-14T03:06:28.652Z,12.61
2018-06-14T03:07:28.645Z,12.51
2018-06-14T03:08:28.644Z,12.59
2018-06-14T03:09:28.639Z,12.58
2018-06-14T03:10:28.629Z,12.61
2018-06-14T03:11:28.625Z,12.61
2018-06-14T03:12:28.618Z,12.59
2018-06-14T03:13:28.613Z,12.56
2018-06-14T03:14:28.612Z,12.61
2018-06-14T03:15:28.605Z,12.56
2018-06-14T03:16:28.599Z,12.61
2018-06-14T03:17:28.594Z,12.59
2018-06-14T03:18:28.584Z,12.55
2018-06-14T03:19:28.577Z,12.51
2018-06-14T03:20:28.573Z,12.52
2018-06-14T03:21:28.567Z,12.52
2018-06-14T03:22:28.567Z,12.54
2018-06-14T03:23:28.559Z,12.46
2018-06-14T03:24:28.549Z,12.52
2018-06-14T03:25:28.545Z,12.46
2018-06-14T03:26:28.547Z,12.51
2018-06-14T03:27:28.538Z,12.52
2018-06-14T03:28:28.531Z,12.49
2018-06-14T03:29:28.526Z,12.54
2018-06-14T03:30:28.516Z,12.55
2018-06-14T03:31:28.510Z,12.56
2018-06-14T03:32:28.505Z,12.52
2018-06-14T03:33:28.499Z,12.51
2018-06-14T03:34:28.498Z,12.41
2018-06-14T03:35:28.492Z,12.44
2018-06-14T03:36:28.489Z,12.46
2018-06-14T03:37:28.482Z,12.44
2018-06-14T03:38:28.472Z,12.46
2018-06-14T03:39:28.465Z,12.46
2018-06-14T03:40:28.466Z,12.44
2018-06-14T03:41:28.459Z,12.49
2018-06-14T03:42:28.450Z,12.48
2018-06-14T03:43:28.451Z,12.49
2018-06-14T03:44:28.439Z,12.48
2018-06-14T03:45:28.435Z,12.48
2018-06-14T03:46:28.476Z,12.46
2018-06-14T03:47:28.425Z,12.49
2018-06-14T03:48:28.421Z,12.48
2018-06-14T03:49:28.415Z,12.56
2018-06-14T03:50:28.405Z,12.49
2018-06-14T03:51:28.402Z,12.49
2018-06-14T03:52:28.395Z,12.51
2018-06-14T03:53:28.390Z,12.49
2018-06-14T03:54:28.389Z,12.44
2018-06-14T03:55:28.384Z,12.51
2018-06-14T03:56:28.374Z,12.49
2018-06-14T03:57:28.368Z,12.49
2018-06-14T03:58:28.399Z,12.55
2018-06-14T03:59:28.363Z,12.49
2018-06-14T04:00:28.356Z,12.55
2018-06-14T04:01:28.351Z,12.61
2018-06-14T04:02:28.343Z,12.59
2018-06-14T04:03:28.336Z,12.59
2018-06-14T04:04:28.332Z,12.66
2018-06-14T04:05:28.326Z,12.70
2018-06-14T04:06:28.328Z,12.76
2018-06-14T04:07:28.325Z,12.81
2018-06-14T04:08:28.317Z,12.79
2018-06-14T04:09:28.310Z,12.74
2018-06-14T04:10:28.393Z,12.80
2018-06-14T04:11:28.295Z,12.74
2018-06-14T04:12:28.294Z,12.81
2018-06-14T04:13:28.291Z,12.77
2018-06-14T04:14:28.283Z,12.81
2018-06-14T04:15:28.275Z,12.81
2018-06-14T04:16:28.270Z,12.84
2018-06-14T04:17:28.265Z,12.94
2018-06-14T04:18:28.273Z,12.89
2018-06-14T04:19:28.260Z,12.98
2018-06-14T04:20:28.267Z,12.99
2018-06-14T04:21:28.250Z,13.10
2018-06-14T04:22:28.241Z,13.09
2018-06-14T04:23:28.235Z,13.06
2018-06-14T04:24:28.231Z,13.10
2018-06-14T04:25:28.225Z,13.13
2018-06-14T04:26:28.225Z,13.16
2018-06-14T04:27:28.259Z,13.06
2018-06-14T04:28:28.210Z,13.16
2018-06-14T04:29:28.205Z,13.24
2018-06-14T04:30:28.205Z,13.22
2018-06-14T04:31:28.200Z,13.16
2018-06-14T04:32:28.197Z,13.27
2018-06-14T04:33:28.194Z,13.16
2018-06-14T04:34:28.182Z,13.28
2018-06-14T04:35:28.177Z,13.22
2018-06-14T04:36:28.173Z,13.27
2018-06-14T04:37:28.169Z,13.17
2018-06-14T04:38:28.169Z,13.27
2018-06-14T04:39:28.163Z,13.36
2018-06-14T04:40:28.157Z,13.32
2018-06-14T04:41:28.154Z,13.38
2018-06-14T04:42:28.144Z,13.46
2018-06-14T04:43:28.139Z,13.44
2018-06-14T04:44:28.141Z,13.50
2018-06-14T04:45:28.136Z,13.47
2018-06-14T04:46:28.126Z,13.55
2018-06-14T04:47:28.121Z,13.51
2018-06-14T04:48:28.117Z,13.63
2018-06-14T04:49:28.115Z,13.68
2018-06-14T04:50:28.113Z,13.65
2018-06-14T04:51:28.108Z,13.76
2018-06-14T04:52:28.104Z,13.68
2018-06-14T04:53:28.153Z,13.86
2018-06-14T04:54:28.091Z,13.88
2018-06-14T04:55:28.087Z,13.96
2018-06-14T04:56:28.082Z,14.12
2018-06-14T04:57:28.077Z,14.24
2018-06-14T04:58:28.077Z,14.45
2018-06-14T04:59:28.073Z,14.52
2018-06-14T05:00:28.066Z,14.69
2018-06-14T05:01:28.061Z,14.67
2018-06-14T05:02:28.067Z,14.74
2018-06-14T05:03:28.058Z,14.80
2018-06-14T05:04:28.056Z,14.93
2018-06-14T05:05:28.053Z,15.20
2018-06-14T05:06:28.045Z,15.31
2018-06-14T05:07:28.042Z,15.38
2018-06-14T05:08:28.039Z,15.38
2018-06-14T05:09:28.037Z,15.28
2018-06-14T05:10:28.040Z,15.31
2018-06-14T05:11:28.037Z,15.40
2018-06-14T05:12:28.036Z,15.55
2018-06-14T05:13:28.033Z,15.73
2018-06-14T05:14:28.028Z,15.71
2018-06-14T05:15:28.026Z,15.78
2018-06-14T05:16:28.030Z,15.91
2018-06-14T05:17:28.029Z,16.03
2018-06-14T05:18:28.024Z,16.30
2018-06-14T05:19:28.023Z,16.59
2018-06-14T05:20:28.024Z,16.75
2018-06-14T05:21:28.023Z,17.02
2018-06-14T05:22:28.028Z,16.91
2018-06-14T05:23:28.081Z,17.25
2018-06-14T05:24:28.027Z,17.38
2018-06-14T05:25:28.028Z,18.05
2018-06-14T05:26:28.024Z,18.23
2018-06-14T05:27:28.024Z,18.51
2018-06-14T05:28:28.027Z,18.44
2018-06-14T05:29:28.027Z,18.28
2018-06-14T05:30:28.033Z,18.71
2018-06-14T05:31:28.033Z,19.16
2018-06-14T05:32:28.030Z,18.87
2018-06-14T05:33:28.033Z,19.02
2018-06-14T05:34:28.040Z,19.24
2018-06-14T05:35:28.040Z,19.30
2018-06-14T05:36:28.042Z,19.42
2018-06-14T05:37:28.044Z,19.94
2018-06-14T05:38:28.043Z,20.12
2018-06-14T05:39:28.044Z,20.50
2018-06-14T05:40:28.047Z,20.72
2018-06-14T05:41:28.049Z,20.76
2018-06-14T05:42:28.063Z,20.63
2018-06-14T05:43:28.058Z,20.44
2018-06-14T05:44:28.063Z,20.85
2018-06-14T05:45:28.065Z,20.56
2018-06-14T05:46:28.064Z,20.46
2018-06-14T05:47:28.067Z,19.27
2018-06-14T05:48:28.076Z,19.53
2018-06-14T05:49:28.078Z,18.78
2018-06-14T05:50:28.078Z,19.58
2018-06-14T05:51:28.080Z,19.16
2018-06-14T05:52:28.084Z,18.96
2018-06-14T05:53:28.088Z,19.10
2018-06-14T05:54:28.096Z,19.72
2018-06-14T05:55:28.100Z,18.97
2018-06-14T05:56:28.104Z,19.21
2018-06-14T05:57:28.109Z,19.34
2018-06-14T05:58:28.109Z,19.68
2018-06-14T05:59:28.111Z,20.34
2018-06-14T06:00:28.115Z,20.22
2018-06-14T06:01:28.120Z,20.66
2018-06-14T06:02:28.129Z,21.01
2018-06-14T06:03:28.137Z,20.83
2018-06-14T06:04:28.134Z,20.96
2018-06-14T06:05:28.138Z,21.13
2018-06-14T06:06:28.200Z,20.42
2018-06-14T06:07:28.150Z,20.76
2018-06-14T06:08:28.155Z,20.73
2018-06-14T06:09:28.160Z,21.19
2018-06-14T06:10:28.161Z,21.45
2018-06-14T06:11:28.166Z,20.88
2018-06-14T06:12:28.170Z,20.81
2018-06-14T06:13:28.176Z,21.19
2018-06-14T06:14:28.186Z,20.16
2018-06-14T06:15:28.189Z,20.08
2018-06-14T06:16:28.195Z,20.50
2018-06-14T06:17:28.200Z,20.10
2018-06-14T06:18:28.201Z,19.90
2018-06-14T06:19:28.206Z,19.68
2018-06-14T06:20:28.216Z,20.68
2018-06-14T06:21:28.220Z,20.57
2018-06-14T06:22:28.221Z,20.54
2018-06-14T06:23:28.282Z,20.91
2018-06-14T06:24:28.232Z,20.35
2018-06-14T06:25:28.238Z,20.42
2018-06-14T06:26:28.303Z,20.83
2018-06-14T06:27:28.252Z,21.09
2018-06-14T06:28:28.259Z,21.66
2018-06-14T06:29:28.264Z,22.24
2018-06-14T06:30:28.267Z,21.79
2018-06-14T06:31:28.270Z,21.46
2018-06-14T06:32:28.275Z,21.91
2018-06-14T06:33:28.368Z,21.46
2018-06-14T06:34:28.295Z,21.46
2018-06-14T06:35:28.297Z,21.83
2018-06-14T06:36:28.299Z,21.91
2018-06-14T06:37:28.306Z,22.12
2018-06-14T06:38:28.316Z,22.61
2018-06-14T06:39:28.321Z,22.49
2018-06-14T06:40:28.328Z,23.04
2018-06-14T06:41:28.334Z,23.56
2018-06-14T06:42:28.336Z,23.39
2018-06-14T06:43:28.342Z,24.04
2018-06-14T06:44:28.349Z,23.62
2018-06-14T06:45:28.363Z,23.92
2018-06-14T06:46:28.369Z,24.36
2018-06-14T06:47:28.374Z,24.84
2018-06-14T06:48:28.381Z,25.23
2018-06-14T06:49:28.389Z,25.14
2018-06-14T06:50:28.394Z,24.77
2018-06-14T06:51:28.400Z,24.44
2018-06-14T06:52:28.411Z,24.27
2018-06-14T06:53:28.431Z,24.74
2018-06-14T06:54:28.423Z,24.52
2018-06-14T06:55:28.431Z,25.02
2018-06-14T06:56:28.439Z,25.54
2018-06-14T06:57:28.447Z,25.14
2018-06-14T06:58:28.461Z,25.53
2018-06-14T06:59:28.469Z,25.39
2018-06-14T07:00:28.478Z,24.63
2018-06-14T07:01:28.487Z,23.79
2018-06-14T07:02:28.490Z,23.84
2018-06-14T07:03:28.500Z,23.23
2018-06-14T07:04:28.506Z,23.53
2018-06-14T07:05:28.516Z,22.66
2018-06-14T07:06:28.567Z,23.18
2018-06-14T07:07:28.538Z,22.76
2018-06-14T07:08:28.544Z,22.79
2018-06-14T07:09:28.559Z,22.94
2018-06-14T07:10:28.566Z,22.99
2018-06-14T07:11:28.629Z,22.89
2018-06-14T07:12:28.585Z,23.32
2018-06-14T07:13:28.596Z,23.44
2018-06-14T07:14:28.598Z,24.45
2018-06-14T07:15:28.608Z,24.48
2018-06-14T07:16:28.626Z,24.18
2018-06-14T07:17:28.626Z,24.55
2018-06-14T07:18:28.641Z,24.74
2018-06-14T07:19:28.650Z,25.07
2018-06-14T07:20:28.658Z,23.67
2018-06-14T07:21:28.724Z,23.94
2018-06-14T07:22:28.674Z,24.02
2018-06-14T07:23:28.713Z,24.30
2018-06-14T07:24:28.697Z,24.18
2018-06-14T07:25:28.709Z,23.29
2018-06-14T07:26:28.713Z,23.53
2018-06-14T07:27:28.722Z,23.42
2018-06-14T07:28:28.731Z,23.41
2018-06-14T07:29:28.742Z,22.85
2018-06-14T07:30:28.758Z,23.42
2018-06-14T07:31:28.765Z,23.78
2018-06-14T07:32:28.779Z,23.38
2018-06-14T07:33:28.785Z,23.39
2018-06-14T07:34:28.791Z,23.94
2018-06-14T07:35:28.800Z,24.02
2018-06-14T07:36:28.809Z,24.27
2018-06-14T07:37:28.818Z,24.97
2018-06-14T07:38:28.833Z,25.14
2018-06-14T07:39:28.843Z,25.67
2018-06-14T07:40:28.849Z,25.79
2018-06-14T07:41:28.857Z,25.89
2018-06-14T07:42:28.873Z,26.03
2018-06-14T07:43:28.883Z,26.06
2018-06-14T07:44:28.893Z,26.08
2018-06-14T07:45:28.904Z,27.23
2018-06-14T07:46:28.911Z,27.46
2018-06-14T07:47:28.921Z,26.71
2018-06-14T07:48:28.932Z,27.39
2018-06-14T07:49:28.944Z,27.50
2018-06-14T07:50:28.961Z,28.06
2018-06-14T07:51:28.971Z,27.78
2018-06-14T07:52:28.984Z,28.51
2018-06-14T07:53:28.995Z,27.86
2018-06-14T07:54:29.005Z,28.35
2018-06-14T07:55:29.015Z,26.94
2018-06-14T07:56:29.034Z,26.27
2018-06-14T07:57:29.046Z,26.98
2018-06-14T07:58:29.054Z,27.13
2018-06-14T07:59:29.066Z,28.57
2018-06-14T08:00:29.079Z,28.42
2018-06-14T08:01:29.092Z,27.59
2018-06-14T08:02:29.110Z,28.51
2018-06-14T08:03:29.123Z,29.64
2018-06-14T08:04:29.137Z,29.05
2018-06-14T08:05:29.150Z,29.27
2018-06-14T08:06:29.220Z,30.25
2018-06-14T08:07:29.173Z,30.49
2018-06-14T08:08:29.189Z,30.13
2018-06-14T08:09:29.206Z,30.98
2018-06-14T08:10:29.221Z,31.38
2018-06-14T08:11:29.235Z,31.19
2018-06-14T08:12:29.259Z,30.64
2018-06-14T08:13:29.259Z,31.79
2018-06-14T08:14:29.279Z,32.10
2018-06-14T08:15:29.293Z,32.54
2018-06-14T08:16:29.308Z,33.82
2018-06-14T08:17:29.323Z,34.16
2018-06-14T08:18:29.335Z,34.71
2018-06-14T08:19:29.351Z,34.36
2018-06-14T08:20:29.365Z,34.28
2018-06-14T08:21:29.380Z,33.71
2018-06-14T08:22:29.401Z,32.85
2018-06-14T08:23:29.417Z,32.62
2018-06-14T08:24:29.434Z,32.41
2018-06-14T08:25:29.452Z,31.99
2018-06-14T08:26:29.462Z,32.22
2018-06-14T08:27:29.478Z,32.73
2018-06-14T08:28:29.500Z,33.29
2018-06-14T08:29:29.516Z,32.99
2018-06-14T08:30:29.528Z,31.68
2018-06-14T08:31:29.543Z,30.72
2018-06-14T08:32:29.559Z,30.32
2018-06-14T08:33:29.575Z,31.35
2018-06-14T08:34:29.595Z,32.28
2018-06-14T08:35:29.611Z,33.09
2018-06-14T08:36:29.626Z,34.03
2018-06-14T08:37:29.641Z,34.64
2018-06-14T08:38:29.652Z,34.61
2018-06-14T08:39:29.667Z,34.33
2018-06-14T08:40:29.683Z,34.01
2018-06-14T08:41:29.698Z,33.40
2018-06-14T08:42:29.722Z,31.90
2018-06-14T08:43:29.734Z,30.01
2018-06-14T08:44:29.747Z,29.55
2018-06-14T08:45:29.762Z,29.58
2018-06-14T08:46:29.783Z,28.73
2018-06-14T08:47:29.796Z,25.59
2018-06-14T08:48:29.813Z,25.26
2018-06-14T08:49:29.829Z,25.16
2018-06-14T08:50:29.838Z,25.38
2018-06-14T08:51:29.852Z,25.56
2018-06-14T08:52:29.865Z,25.72
2018-06-14T08:53:29.883Z,25.60
2018-06-14T08:54:29.898Z,25.67
2018-06-14T08:55:29.909Z,25.16
2018-06-14T08:56:29.920Z,24.48
2018-06-14T08:57:29.931Z,23.56
2018-06-14T08:58:29.938Z,22.97
2018-06-14T08:59:29.948Z,23.92
2018-06-14T09:00:29.963Z,24.52
2018-06-14T09:01:29.974Z,24.59
2018-06-14T09:02:29.979Z,24.74
2018-06-14T09:03:29.988Z,24.68
2018-06-14T09:04:30.003Z,24.48
2018-06-14T09:05:30.008Z,24.60
2018-06-14T09:06:30.023Z,24.15
2018-06-14T09:07:30.029Z,23.93
2018-06-14T09:08:30.038Z,23.96
2018-06-14T09:09:30.049Z,23.99
2018-06-14T09:10:30.049Z,24.16
2018-06-14T09:11:30.059Z,24.23
2018-06-14T09:12:30.063Z,24.41
2018-06-14T09:13:30.073Z,24.56
2018-06-14T09:14:30.083Z,24.55
2018-06-14T09:15:30.089Z,24.67
2018-06-14T09:16:30.091Z,24.84
2018-06-14T09:17:30.098Z,24.94
2018-06-14T09:18:30.111Z,25.36
2018-06-14T09:19:30.115Z,26.78
2018-06-14T09:20:30.122Z,27.21
2018-06-14T09:21:30.129Z,27.99
2018-06-14T09:22:30.130Z,27.99
2018-06-14T09:23:30.136Z,27.49
2018-06-14T09:24:30.145Z,27.49
2018-06-14T09:25:30.151Z,27.01
2018-06-14T09:26:30.164Z,26.50
2018-06-14T09:27:30.169Z,26.54
2018-06-14T09:28:30.176Z,26.12
2018-06-14T09:29:30.184Z,26.17
2018-06-14T09:30:30.190Z,26.72
2018-06-14T09:31:30.196Z,27.39
2018-06-14T09:32:30.205Z,28.55
2018-06-14T09:33:30.213Z,29.44
2018-06-14T09:34:30.217Z,29.58
2018-06-14T09:35:30.224Z,30.67
2018-06-14T09:36:30.233Z,30.70
2018-06-14T09:37:30.242Z,29.78
2018-06-14T09:38:30.258Z,28.97
2018-06-14T09:39:30.266Z,28.11
2018-06-14T09:40:30.278Z,27.02
2018-06-14T09:41:30.290Z,26.54
2018-06-14T09:42:30.296Z,26.73
2018-06-14T09:43:30.307Z,26.47
2018-06-14T09:44:30.319Z,25.67
2018-06-14T09:45:30.329Z,25.11
2018-06-14T09:46:30.345Z,25.01
2018-06-14T09:47:30.355Z,25.42
2018-06-14T09:48:30.363Z,24.79
2018-06-14T09:49:30.375Z,24.77
2018-06-14T09:50:30.388Z,24.84
2018-06-14T09:51:30.397Z,25.07
2018-06-14T09:52:30.408Z,25.75
2018-06-14T09:53:30.418Z,25.94
2018-06-14T09:54:30.422Z,25.86
2018-06-14T09:55:30.430Z,26.34
2018-06-14T09:56:30.443Z,27.46
2018-06-14T09:57:30.449Z,27.34
2018-06-14T09:58:30.464Z,27.09
2018-06-14T09:59:30.471Z,26.87
2018-06-14T10:00:30.503Z,26.93
2018-06-14T10:01:30.490Z,27.09
2018-06-14T10:02:30.495Z,28.52
2018-06-14T10:03:30.502Z,29.69
2018-06-14T10:04:30.516Z,30.34
2018-06-14T10:05:30.526Z,30.16
2018-06-14T10:06:30.531Z,29.05
2018-06-14T10:07:30.539Z,29.00
2018-06-14T10:08:30.550Z,28.72
2018-06-14T10:09:30.558Z,28.21
2018-06-14T10:10:30.573Z,28.13
2018-06-14T10:11:30.582Z,27.87
2018-06-14T10:12:30.592Z,27.68
2018-06-14T10:13:30.602Z,27.53
2018-06-14T10:14:30.609Z,27.84
2018-06-14T10:15:30.614Z,28.85
2018-06-14T10:16:30.625Z,28.67
2018-06-14T10:17:30.632Z,28.46
2018-06-14T10:18:30.645Z,28.60
2018-06-14T10:19:30.653Z,29.54
2018-06-14T10:20:30.658Z,30.40
2018-06-14T10:21:30.674Z,28.98
2018-06-14T10:22:30.682Z,27.48
2018-06-14T10:23:30.690Z,27.91
2018-06-14T10:24:30.705Z,28.28
2018-06-14T10:25:30.712Z,28.45
2018-06-14T10:26:30.717Z,28.43
2018-06-14T10:27:30.729Z,28.50
2018-06-14T10:28:30.736Z,28.73
2018-06-14T10:29:30.748Z,28.27
2018-06-14T10:30:30.764Z,27.78
2018-06-14T10:31:30.773Z,27.06
2018-06-14T10:32:30.784Z,26.72
2018-06-14T10:33:30.795Z,27.34
2018-06-14T10:34:30.810Z,27.40
2018-06-14T10:35:30.812Z,27.80
2018-06-14T10:36:30.828Z,28.25
2018-06-14T10:37:30.839Z,28.55
2018-06-14T10:38:30.846Z,28.32
2018-06-14T10:39:30.855Z,28.35
2018-06-14T10:40:30.866Z,27.90
2018-06-14T10:41:30.879Z,27.59
2018-06-14T10:42:30.894Z,28.17
2018-06-14T10:43:30.938Z,28.48
2018-06-14T10:44:30.916Z,27.65
2018-06-14T10:45:30.924Z,27.50
2018-06-14T10:46:30.930Z,27.46
2018-06-14T10:47:30.940Z,27.40
2018-06-14T10:48:30.950Z,28.11
2018-06-14T10:49:30.962Z,27.49
2018-06-14T10:50:30.976Z,27.68
2018-06-14T10:51:30.985Z,28.08
2018-06-14T10:52:31.046Z,27.81
2018-06-14T10:53:31.003Z,27.33
2018-06-14T10:54:31.016Z,27.62
2018-06-14T10:55:31.025Z,27.62
2018-06-14T10:56:31.036Z,27.72
2018-06-14T10:57:31.046Z,27.81
2018-06-14T10:58:31.054Z,28.11
2018-06-14T10:59:31.061Z,27.98
2018-06-14T11:00:31.070Z,27.77
2018-06-14T11:01:31.081Z,28.13
2018-06-14T11:02:31.094Z,28.06
2018-06-14T11:03:31.103Z,28.20
2018-06-14T11:04:31.114Z,27.63
2018-06-14T11:05:31.125Z,27.18
2018-06-14T11:06:31.129Z,27.38
2018-06-14T11:07:31.137Z,27.24
2018-06-14T11:08:31.150Z,27.50
2018-06-14T11:09:31.162Z,27.65
2018-06-14T11:10:31.164Z,27.72
2018-06-14T11:11:31.172Z,27.52
2018-06-14T11:12:31.182Z,27.45
2018-06-14T11:13:31.191Z,27.45
2018-06-14T11:14:31.204Z,27.66
2018-06-14T11:15:31.264Z,27.95
2018-06-14T11:16:31.222Z,28.18
2018-06-14T11:17:31.231Z,27.68
2018-06-14T11:18:31.235Z,27.33
2018-06-14T11:19:31.247Z,27.43
2018-06-14T11:20:31.253Z,27.71
2018-06-14T11:21:31.261Z,27.69
2018-06-14T11:22:31.279Z,27.74
2018-06-14T11:23:31.285Z,27.74
2018-06-14T11:24:31.287Z,27.43
2018-06-14T11:25:31.298Z,27.40
2018-06-14T11:26:31.309Z,26.86
2018-06-14T11:27:31.318Z,26.28
2018-06-14T11:28:31.327Z,26.81
2018-06-14T11:29:31.337Z,26.97
2018-06-14T11:30:31.339Z,27.23
2018-06-14T11:31:31.349Z,27.25
2018-06-14T11:32:31.358Z,27.55
2018-06-14T11:33:31.364Z,27.72
2018-06-14T11:34:31.376Z,27.83
2018-06-14T11:35:31.384Z,27.71
2018-06-14T11:36:31.394Z,27.83
2018-06-14T11:37:31.402Z,27.38
2018-06-14T11:38:31.405Z,27.15
2018-06-14T11:39:31.415Z,27.30
2018-06-14T11:40:31.425Z,27.43
2018-06-14T11:41:31.436Z,27.34
2018-06-14T11:42:31.436Z,27.33
2018-06-14T11:43:31.442Z,26.96
2018-06-14T11:44:31.452Z,26.39
2018-06-14T11:45:31.458Z,26.50
2018-06-14T11:46:31.470Z,26.71
2018-06-14T11:47:31.500Z,27.03
2018-06-14T11:48:31.485Z,27.35
2018-06-14T11:49:31.492Z,27.45
2018-06-14T11:50:31.498Z,27.62
2018-06-14T11:51:31.502Z,27.91
2018-06-14T11:52:31.510Z,28.05
2018-06-14T11:53:31.520Z,27.98
2018-06-14T11:54:31.529Z,27.93
2018-06-14T11:55:31.536Z,27.91
2018-06-14T11:56:31.538Z,27.93
2018-06-14T11:57:31.546Z,28.03
2018-06-14T11:58:31.557Z,28.11
2018-06-14T11:59:31.569Z,28.08
2018-06-14T12:00:31.573Z,27.31
2018-06-14T12:01:31.580Z,26.51
2018-06-14T12:02:31.582Z,26.38
2018-06-14T12:03:31.588Z,26.41
2018-06-14T12:04:31.596Z,26.72
2018-06-14T12:05:31.602Z,26.83
2018-06-14T12:06:31.616Z,26.96
2018-06-14T12:07:31.620Z,27.24
2018-06-14T12:08:31.628Z,27.33
2018-06-14T12:09:31.633Z,27.62
2018-06-14T12:10:31.636Z,27.80
2018-06-14T12:11:31.643Z,27.80
2018-06-14T12:12:31.656Z,27.95
2018-06-14T12:13:31.660Z,27.84
2018-06-14T12:14:31.670Z,27.87
2018-06-14T12:15:31.669Z,27.99
2018-06-14T12:16:31.678Z,28.03
2018-06-14T12:17:31.684Z,27.93
2018-06-14T12:18:31.698Z,27.99
2018-06-14T12:19:31.701Z,28.23
2018-06-14T12:20:31.710Z,28.17
2018-06-14T12:21:31.719Z,28.18
2018-06-14T12:22:31.717Z,28.33
2018-06-14T12:23:31.724Z,28.51
2018-06-14T12:24:31.729Z,28.33
2018-06-14T12:25:31.737Z,28.01
2018-06-14T12:26:31.751Z,27.90
2018-06-14T12:27:31.754Z,27.98
2018-06-14T12:28:31.758Z,26.68
2018-06-14T12:29:31.764Z,26.34
2018-06-14T12:30:31.776Z,25.60
2018-06-14T12:31:31.781Z,25.60
2018-06-14T12:32:31.788Z,25.61
2018-06-14T12:33:31.795Z,25.76
2018-06-14T12:34:31.798Z,26.24
2018-06-14T12:35:31.802Z,26.54
2018-06-14T12:36:31.810Z,26.83
2018-06-14T12:37:31.816Z,26.83
2018-06-14T12:38:31.828Z,26.72
2018-06-14T12:39:31.834Z,26.50
2018-06-14T12:40:31.839Z,26.54
2018-06-14T12:41:31.846Z,26.69
2018-06-14T12:42:31.848Z,26.93
2018-06-14T12:43:31.856Z,26.97
2018-06-14T12:44:31.865Z,27.03
2018-06-14T12:45:31.872Z,27.24
2018-06-14T12:46:31.876Z,27.33
2018-06-14T12:47:31.879Z,27.55
2018-06-14T12:48:31.886Z,27.95
2018-06-14T12:49:31.893Z,28.06
2018-06-14T12:50:31.903Z,28.24
2018-06-14T12:51:31.910Z,28.48
2018-06-14T12:52:31.915Z,28.74